createdAt,value
2022-09-16T00:00:29.466Z,15.75
2022-09-16T00:02:56.343Z,15.77
2022-09-16T00:05:23.084Z,15.81
2022-09-16T00:07:49.558Z,15.84
2022-09-16T00:10:16.316Z,15.87
2022-09-16T00:12:42.956Z,15.93
2022-09-16T00:15:10.310Z,15.94
2022-09-16T00:17:37.873Z,15.88
2022-09-16T00:20:05.695Z,15.90
2022-09-16T00:22:32.244Z,15.96
2022-09-16T00:24:58.610Z,15.88
2022-09-16T00:27:25.059Z,15.84
2022-09-16T00:29:51.590Z,15.79
2022-09-16T00:32:18.046Z,15.77
2022-09-16T00:34:44.448Z,15.76
2022-09-16T00:37:10.888Z,15.74
2022-09-16T00:39:37.633Z,15.70
2022-09-16T00:42:04.807Z,15.70
2022-09-16T00:45:02.079Z,15.70
2022-09-16T00:47:36.650Z,15.69
2022-09-16T00:50:27.153Z,15.66
2022-09-16T00:52:55.417Z,15.66
2022-09-16T00:55:26.892Z,15.66
2022-09-16T00:57:57.273Z,15.63
2022-09-16T01:00:23.704Z,15.65
2022-09-16T01:02:50.445Z,15.59
2022-09-16T01:05:21.159Z,15.57
2022-09-16T01:07:50.189Z,15.54
2022-09-16T01:10:22.173Z,15.51
2022-09-16T01:12:54.578Z,15.43
2022-09-16T01:15:36.395Z,15.37
2022-09-16T01:18:17.291Z,15.35
2022-09-16T01:21:03.165Z,15.40
2022-09-16T01:23:48.076Z,15.36
2022-09-16T01:26:35.853Z,15.36
2022-09-16T01:29:36.469Z,15.38
2022-09-16T01:32:20.806Z,15.44
2022-09-16T01:34:55.984Z,15.42
2022-09-16T01:37:33.270Z,15.34
2022-09-16T01:40:10.131Z,15.33
2022-09-16T01:43:00.536Z,15.33
2022-09-16T01:45:45.683Z,15.33
2022-09-16T01:48:31.954Z,15.32
2022-09-16T01:51:05.680Z,15.26
2022-09-16T01:53:39.692Z,15.25
2022-09-16T01:56:20.436Z,15.22
2022-09-16T01:58:59.140Z,15.19
2022-09-16T02:01:29.087Z,15.19
2022-09-16T02:04:03.413Z,15.18
2022-09-16T02:06:31.689Z,15.12
2022-09-16T02:09:03.035Z,15.08
2022-09-16T02:11:29.830Z,15.05
2022-09-16T02:14:13.812Z,15.03
2022-09-16T02:16:51.275Z,14.97
2022-09-16T02:19:23.564Z,15.00
2022-09-16T02:21:53.624Z,15.03
2022-09-16T02:24:22.261Z,15.00
2022-09-16T02:27:17.401Z,15.05
2022-09-16T02:29:52.945Z,15.02
2022-09-16T02:32:22.828Z,14.94
2022-09-16T02:34:51.606Z,14.98
2022-09-16T02:37:22.154Z,15.05
2022-09-16T02:39:53.013Z,15.07
2022-09-16T02:42:19.458Z,15.00
2022-09-16T02:44:47.130Z,15.00
2022-09-16T02:47:38.404Z,15.00
2022-09-16T02:50:15.389Z,15.03
2022-09-16T02:52:59.535Z,15.06
2022-09-16T02:55:53.936Z,15.06
2022-09-16T02:58:20.705Z,15.01
2022-09-16T03:00:51.356Z,14.96
2022-09-16T03:03:18.207Z,14.95
2022-09-16T03:06:16.538Z,15.02
2022-09-16T03:08:44.836Z,15.04
2022-09-16T03:11:30.099Z,15.01
2022-09-16T03:14:06.397Z,15.01
2022-09-16T03:17:03.567Z,15.01
2022-09-16T03:20:13.814Z,15.05
2022-09-16T03:22:49.455Z,15.08
2022-09-16T03:25:30.768Z,15.10
2022-09-16T03:28:04.180Z,15.13
2022-09-16T03:30:36.207Z,15.19
2022-09-16T03:33:14.489Z,15.19
2022-09-16T03:35:45.422Z,15.22
2022-09-16T03:38:13.758Z,15.27
2022-09-16T03:40:41.984Z,15.28
2022-09-16T03:43:16.508Z,15.33
2022-09-16T03:45:43.871Z,15.32
2022-09-16T03:48:12.613Z,15.35
2022-09-16T03:50:39.003Z,15.35
2022-09-16T03:53:05.572Z,15.30
2022-09-16T03:55:31.971Z,15.31
2022-09-16T03:57:58.380Z,15.30
2022-09-16T04:00:24.907Z,15.31
2022-09-16T04:02:51.351Z,15.26
2022-09-16T04:05:17.699Z,15.22
2022-09-16T04:07:44.047Z,15.15
2022-09-16T04:10:12.341Z,15.18
2022-09-16T04:12:38.856Z,15.17
2022-09-16T04:15:05.715Z,15.18
2022-09-16T04:17:33.415Z,15.17
2022-09-16T04:19:59.933Z,15.18
2022-09-16T04:22:30.676Z,15.20
2022-09-16T04:24:57.820Z,15.19
2022-09-16T04:27:24.693Z,15.23
2022-09-16T04:29:51.043Z,15.14
2022-09-16T04:32:17.446Z,15.12
2022-09-16T04:34:43.943Z,15.13
2022-09-16T04:37:10.369Z,15.16
2022-09-16T04:39:36.732Z,15.14
2022-09-16T04:42:05.360Z,15.12
2022-09-16T04:44:31.748Z,15.16
2022-09-16T04:46:58.129Z,15.06
2022-09-16T04:49:24.543Z,14.97
2022-09-16T04:51:52.132Z,14.90
2022-09-16T04:54:18.549Z,14.90
2022-09-16T04:56:44.920Z,14.86
2022-09-16T04:59:11.314Z,14.82
2022-09-16T05:01:39.483Z,14.78
2022-09-16T05:04:07.531Z,14.77
2022-09-16T05:06:36.881Z,14.75
2022-09-16T05:09:03.711Z,14.72
2022-09-16T05:11:36.574Z,14.71
2022-09-16T05:14:05.940Z,14.65
2022-09-16T05:16:33.025Z,14.62
2022-09-16T05:19:01.335Z,14.61
2022-09-16T05:21:28.553Z,14.67
2022-09-16T05:23:59.249Z,14.64
2022-09-16T05:26:27.667Z,14.58
2022-09-16T05:28:54.301Z,14.49
2022-09-16T05:31:23.697Z,14.43
2022-09-16T05:34:01.937Z,14.34
2022-09-16T05:36:30.549Z,14.28
2022-09-16T05:39:21.625Z,14.25
2022-09-16T05:41:44.505Z,14.25
2022-09-16T05:44:10.861Z,14.18
2022-09-16T05:46:37.450Z,14.17
2022-09-16T05:49:04.375Z,14.08
2022-09-16T05:51:31.231Z,14.06
2022-09-16T05:53:59.252Z,14.01
2022-09-16T05:56:28.981Z,14.00
2022-09-16T05:58:57.309Z,13.94
2022-09-16T06:01:35.921Z,13.88
2022-09-16T06:04:06.391Z,13.82
2022-09-16T06:06:37.845Z,13.83
2022-09-16T06:09:07.202Z,13.82
2022-09-16T06:11:38.298Z,13.87
2022-09-16T06:14:06.035Z,13.93
2022-09-16T06:16:33.042Z,13.99
2022-09-16T06:19:01.663Z,14.00
2022-09-16T06:21:28.800Z,13.93
2022-09-16T06:23:56.553Z,13.96
2022-09-16T06:26:25.628Z,13.99
2022-09-16T06:28:52.916Z,14.00
2022-09-16T06:31:25.240Z,13.99
2022-09-16T06:33:52.533Z,13.98
2022-09-16T06:36:24.027Z,13.98
2022-09-16T06:38:51.198Z,14.00
2022-09-16T06:41:20.012Z,14.05
2022-09-16T06:43:47.227Z,14.08
2022-09-16T06:46:16.770Z,14.13
2022-09-16T06:48:44.963Z,14.15
2022-09-16T06:51:14.620Z,14.06
2022-09-16T06:53:41.299Z,14.08
2022-09-16T06:56:12.339Z,14.09
2022-09-16T06:58:41.369Z,14.15
2022-09-16T07:01:15.791Z,14.23
2022-09-16T07:03:44.868Z,14.22
2022-09-16T07:06:13.132Z,14.24
2022-09-16T07:08:40.127Z,14.19
2022-09-16T07:11:10.579Z,14.16
2022-09-16T07:13:37.135Z,14.19
2022-09-16T07:16:14.965Z,14.11
2022-09-16T07:18:42.783Z,14.19
2022-09-16T07:21:19.958Z,14.22
2022-09-16T07:23:46.856Z,14.20
2022-09-16T07:26:16.378Z,14.28
2022-09-16T07:28:46.515Z,14.14
2022-09-16T07:31:16.723Z,14.15
2022-09-16T07:33:46.133Z,14.09
2022-09-16T07:36:14.896Z,14.06
2022-09-16T07:38:41.944Z,14.09
2022-09-16T07:41:14.123Z,14.18
2022-09-16T07:43:41.904Z,14.38
2022-09-16T07:46:10.592Z,14.38
2022-09-16T07:48:37.736Z,14.25
2022-09-16T07:51:25.076Z,14.26
2022-09-16T07:53:56.443Z,14.23
2022-09-16T07:56:25.463Z,14.13
2022-09-16T07:58:53.863Z,14.22
2022-09-16T08:01:20.307Z,14.24
2022-09-16T08:03:47.251Z,14.36
2022-09-16T08:06:22.331Z,14.18
2022-09-16T08:08:52.522Z,14.00
2022-09-16T08:11:19.627Z,13.94
2022-09-16T08:13:46.452Z,13.92
2022-09-16T08:16:18.840Z,13.83
2022-09-16T08:18:47.109Z,13.75
2022-09-16T08:21:21.620Z,13.75
2022-09-16T08:23:48.208Z,13.83
2022-09-16T08:26:16.106Z,13.93
2022-09-16T08:28:51.350Z,13.93
2022-09-16T08:31:31.156Z,14.29
2022-09-16T08:33:58.375Z,14.25
2022-09-16T08:36:26.130Z,14.44
2022-09-16T08:38:55.600Z,14.43
2022-09-16T08:41:28.283Z,14.46
2022-09-16T08:44:03.587Z,14.36
2022-09-16T08:46:53.294Z,14.33
2022-09-16T08:49:26.873Z,14.43
2022-09-16T08:51:54.923Z,14.37
2022-09-16T08:54:30.288Z,14.36
2022-09-16T08:57:00.807Z,14.44
2022-09-16T08:59:32.349Z,14.43
2022-09-16T09:05:23.344Z,14.21
2022-09-16T09:08:14.267Z,14.08
2022-09-16T09:10:48.038Z,14.00
2022-09-16T09:13:15.541Z,14.08
2022-09-16T09:15:54.543Z,14.05
2022-09-16T09:18:30.938Z,14.03
2022-09-16T09:21:22.030Z,14.11
2022-09-16T09:24:31.000Z,14.19
2022-09-16T09:27:14.391Z,14.31
2022-09-16T09:29:59.923Z,14.26
2022-09-16T09:32:48.411Z,14.21
2022-09-16T09:35:25.602Z,14.18
2022-09-16T09:38:32.090Z,14.26
2022-09-16T09:41:12.767Z,14.24
2022-09-16T09:43:49.945Z,14.06
2022-09-16T09:46:29.500Z,14.12
2022-09-16T09:49:08.764Z,14.14
2022-09-16T09:51:45.093Z,14.15
2022-09-16T09:54:27.192Z,14.16
2022-09-16T09:57:15.829Z,14.20
2022-09-16T09:59:48.686Z,14.16
2022-09-16T10:02:21.072Z,14.14
2022-09-16T10:04:48.395Z,14.19
2022-09-16T10:07:18.274Z,14.19
2022-09-16T10:10:04.558Z,14.30
2022-09-16T10:12:35.051Z,14.33
2022-09-16T10:15:01.969Z,14.28
2022-09-16T10:17:31.527Z,14.30
2022-09-16T10:20:20.727Z,14.43
2022-09-16T10:22:57.456Z,14.47
2022-09-16T10:25:26.586Z,14.47
2022-09-16T10:28:00.176Z,14.61
2022-09-16T10:30:34.324Z,14.67
2022-09-16T10:33:03.909Z,14.75
2022-09-16T10:35:35.241Z,14.93
2022-09-16T10:38:13.715Z,14.98
2022-09-16T10:41:10.901Z,15.14
2022-09-16T10:43:40.056Z,15.26
2022-09-16T10:46:07.547Z,15.36
2022-09-16T10:48:34.883Z,15.50
2022-09-16T10:51:04.167Z,15.59
2022-09-16T10:53:44.409Z,15.31
2022-09-16T10:56:20.336Z,15.26
2022-09-16T10:58:49.755Z,15.22
2022-09-16T11:01:34.544Z,15.36
2022-09-16T11:04:31.620Z,15.62
2022-09-16T11:07:16.046Z,15.66
2022-09-16T11:09:49.178Z,15.80
2022-09-16T11:12:37.430Z,15.86
2022-09-16T11:15:32.123Z,15.89
2022-09-16T11:18:21.828Z,15.95
2022-09-16T11:21:10.250Z,15.78
2022-09-16T11:23:42.527Z,15.80
2022-09-16T11:26:43.013Z,15.85
2022-09-16T11:29:12.394Z,15.97
2022-09-16T11:32:01.668Z,16.21
2022-09-16T11:34:49.567Z,16.56
2022-09-16T11:37:28.722Z,16.70
2022-09-16T11:40:26.278Z,17.39
2022-09-16T11:42:59.640Z,17.93
2022-09-16T11:45:53.896Z,18.48
2022-09-16T11:48:40.564Z,18.54
2022-09-16T11:51:46.061Z,18.49
2022-09-16T11:54:40.644Z,18.38
2022-09-16T11:57:13.170Z,17.83
2022-09-16T11:59:53.596Z,17.65
2022-09-16T12:02:42.490Z,17.81
2022-09-16T12:05:22.243Z,17.83
2022-09-16T12:08:11.740Z,18.01
2022-09-16T12:10:48.701Z,18.23
2022-09-16T12:13:47.633Z,18.11
2022-09-16T12:16:18.203Z,18.09
2022-09-16T12:18:49.617Z,17.94
2022-09-16T12:21:26.459Z,17.94
2022-09-16T12:23:59.647Z,18.13
2022-09-16T12:26:33.847Z,18.08
2022-09-16T12:29:19.641Z,17.86
2022-09-16T12:31:52.385Z,17.71
2022-09-16T12:34:25.675Z,17.71
2022-09-16T12:37:13.860Z,17.79
2022-09-16T12:39:40.452Z,17.63
2022-09-16T12:42:12.982Z,17.55
2022-09-16T12:44:54.261Z,17.27
2022-09-16T12:47:27.643Z,17.19
2022-09-16T12:50:19.458Z,17.21
2022-09-16T12:52:57.330Z,17.14
2022-09-16T12:55:35.361Z,16.83
2022-09-16T12:58:05.271Z,16.80
2022-09-16T13:00:59.724Z,16.77
2022-09-16T13:03:30.573Z,16.93
2022-09-16T13:06:00.634Z,16.96
2022-09-16T13:08:32.823Z,16.92
2022-09-16T13:14:05.388Z,17.01
2022-09-16T13:16:36.709Z,16.96
2022-09-16T13:19:22.206Z,17.09
2022-09-16T13:21:50.773Z,17.41
2022-09-16T13:24:36.645Z,17.59
2022-09-16T13:27:38.334Z,17.64
2022-09-16T13:30:13.720Z,17.58
2022-09-16T13:32:57.885Z,17.48
2022-09-16T13:35:46.707Z,17.38
2022-09-16T13:38:18.853Z,17.51
2022-09-16T13:41:14.651Z,17.74
2022-09-16T13:43:46.663Z,18.22
2022-09-16T13:46:26.171Z,18.76
2022-09-16T13:48:58.654Z,19.24
2022-09-16T13:51:25.744Z,19.58
2022-09-16T13:53:53.313Z,19.88
2022-09-16T13:56:55.574Z,20.24
2022-09-16T13:59:40.722Z,20.97
2022-09-16T14:02:29.428Z,20.82
2022-09-16T14:05:17.585Z,20.24
2022-09-16T14:08:04.226Z,19.48
2022-09-16T14:10:53.317Z,19.26
2022-09-16T14:13:22.217Z,19.27
2022-09-16T14:15:55.313Z,19.41
2022-09-16T14:18:28.184Z,19.35
2022-09-16T14:21:02.749Z,19.44
2022-09-16T14:23:30.914Z,19.23
2022-09-16T14:25:57.918Z,18.88
2022-09-16T14:28:28.799Z,18.77
2022-09-16T14:30:57.924Z,18.90
2022-09-16T14:33:37.647Z,18.75
2022-09-16T14:36:23.857Z,18.72
2022-09-16T14:39:00.941Z,18.78
2022-09-16T14:41:38.820Z,18.73
2022-09-16T14:44:20.887Z,18.87
2022-09-16T14:46:56.781Z,18.97
2022-09-16T14:49:32.279Z,18.84
2022-09-16T14:52:03.956Z,18.87
2022-09-16T14:54:31.400Z,18.75
2022-09-16T14:57:07.041Z,18.66
2022-09-16T14:59:39.088Z,18.78
2022-09-16T15:02:15.285Z,18.67
2022-09-16T15:04:45.213Z,18.51
2022-09-16T15:07:18.384Z,18.39
2022-09-16T15:09:50.473Z,18.33
2022-09-16T15:12:23.153Z,18.37
2022-09-16T15:14:49.646Z,18.38
2022-09-16T15:17:20.065Z,18.44
2022-09-16T15:19:52.023Z,18.28
2022-09-16T15:22:20.083Z,18.17
2022-09-16T15:24:49.847Z,18.15
2022-09-16T15:27:29.012Z,18.07
2022-09-16T15:29:59.248Z,18.17
2022-09-16T15:32:29.599Z,18.21
2022-09-16T15:35:14.234Z,18.18
2022-09-16T15:37:40.673Z,18.18
2022-09-16T15:40:23.840Z,18.15
2022-09-16T15:43:10.701Z,18.01
2022-09-16T15:45:38.995Z,18.04
2022-09-16T15:48:12.995Z,17.99
2022-09-16T15:50:42.738Z,17.93
2022-09-16T15:53:17.357Z,17.91
2022-09-16T15:55:53.804Z,17.75
2022-09-16T15:58:27.355Z,17.73
2022-09-16T16:01:15.550Z,17.67
2022-09-16T16:03:53.355Z,17.62
2022-09-16T16:06:20.843Z,17.57
2022-09-16T16:08:52.478Z,17.40
2022-09-16T16:11:21.200Z,17.27
2022-09-16T16:13:49.674Z,17.11
2022-09-16T16:16:18.099Z,16.94
2022-09-16T16:18:46.423Z,16.82
2022-09-16T16:21:16.060Z,16.67
2022-09-16T16:23:43.250Z,16.63
2022-09-16T16:26:11.248Z,16.49
2022-09-16T16:28:38.930Z,16.41
2022-09-16T16:31:16.590Z,16.35
2022-09-16T16:33:47.870Z,16.32
2022-09-16T16:36:16.614Z,16.29
2022-09-16T16:38:43.945Z,16.28
2022-09-16T16:41:12.238Z,16.24
2022-09-16T16:43:39.628Z,16.21
2022-09-16T16:46:06.125Z,16.27
2022-09-16T16:48:32.601Z,16.23
2022-09-16T16:51:07.812Z,16.24
2022-09-16T16:53:34.744Z,16.23
2022-09-16T16:56:05.931Z,16.16
2022-09-16T16:58:33.018Z,16.18
2022-09-16T17:01:16.999Z,16.17
2022-09-16T17:03:46.323Z,16.09
2022-09-16T17:06:13.219Z,16.08
2022-09-16T17:08:39.579Z,16.09
2022-09-16T17:11:07.108Z,16.02
2022-09-16T17:13:34.073Z,16.10
2022-09-16T17:16:00.487Z,16.08
2022-09-16T17:18:26.957Z,15.99
2022-09-16T17:20:53.426Z,15.89
2022-09-16T17:23:19.772Z,15.94
2022-09-16T17:25:50.299Z,15.84
2022-09-16T17:28:17.362Z,15.81
2022-09-16T17:30:44.668Z,15.67
2022-09-16T17:33:11.383Z,15.63
2022-09-16T17:35:37.839Z,15.49
2022-09-16T17:38:06.961Z,15.41
2022-09-16T17:40:33.824Z,15.28
2022-09-16T17:43:00.254Z,15.22
2022-09-16T17:45:26.748Z,15.12
2022-09-16T17:47:53.175Z,14.97
2022-09-16T17:50:22.878Z,14.79
2022-09-16T17:52:49.643Z,14.71
2022-09-16T17:55:16.060Z,14.58
2022-09-16T17:57:42.470Z,14.50
2022-09-16T18:00:11.033Z,14.48
2022-09-16T18:02:37.469Z,14.36
2022-09-16T18:05:04.087Z,14.37
2022-09-16T18:07:33.467Z,14.32
2022-09-16T18:09:59.798Z,14.26
2022-09-16T18:12:26.272Z,14.29
2022-09-16T18:14:53.170Z,14.20
2022-09-16T18:17:19.564Z,14.19
2022-09-16T18:19:45.927Z,14.08
2022-09-16T18:22:12.744Z,14.11
2022-09-16T18:24:39.192Z,13.95
2022-09-16T18:27:05.603Z,13.93
2022-09-16T18:29:32.111Z,13.92
2022-09-16T18:31:58.558Z,13.84
2022-09-16T18:34:28.000Z,13.81
2022-09-16T18:36:57.900Z,13.78
2022-09-16T18:39:24.396Z,13.70
2022-09-16T18:41:50.773Z,13.69
2022-09-16T18:44:25.214Z,13.69
2022-09-16T18:46:53.141Z,13.65
2022-09-16T18:49:22.028Z,13.63
2022-09-16T18:51:52.025Z,13.59
2022-09-16T18:54:24.731Z,13.46
2022-09-16T18:57:00.011Z,13.30
2022-09-16T18:59:32.607Z,13.33
2022-09-16T19:02:00.914Z,13.23
2022-09-16T19:04:31.546Z,13.22
2022-09-16T19:07:05.693Z,13.23
2022-09-16T19:09:31.979Z,13.27
2022-09-16T19:12:01.089Z,13.24
2022-09-16T19:14:27.691Z,13.17
2022-09-16T19:16:54.912Z,13.18
2022-09-16T19:19:21.990Z,13.07
2022-09-16T19:21:48.436Z,13.00
2022-09-16T19:24:23.460Z,12.90
2022-09-16T19:26:52.613Z,12.93
2022-09-16T19:29:19.814Z,12.94
2022-09-16T19:31:48.804Z,12.96
2022-09-16T19:34:16.283Z,12.93
2022-09-16T19:36:43.243Z,12.87
2022-09-16T19:39:10.922Z,12.84
2022-09-16T19:41:39.343Z,12.88
2022-09-16T19:44:08.253Z,12.82
2022-09-16T19:46:38.688Z,12.90
2022-09-16T19:49:06.363Z,12.78
2022-09-16T19:51:33.095Z,12.80
2022-09-16T19:54:00.806Z,12.69
2022-09-16T19:56:31.758Z,12.72
2022-09-16T19:58:58.622Z,12.74
2022-09-16T20:01:27.358Z,12.74
2022-09-16T20:03:54.928Z,12.72
2022-09-16T20:06:25.129Z,12.75
2022-09-16T20:08:59.640Z,12.81
2022-09-16T20:11:28.564Z,12.78
2022-09-16T20:13:57.282Z,12.73
2022-09-16T20:16:26.318Z,12.60
2022-09-16T20:18:53.232Z,12.64
2022-09-16T20:21:22.046Z,12.71
2022-09-16T20:23:48.930Z,12.69
2022-09-16T20:26:20.228Z,12.72
2022-09-16T20:28:51.506Z,12.69
2022-09-16T20:31:26.512Z,12.68
2022-09-16T20:33:53.379Z,12.73
2022-09-16T20:36:25.620Z,12.81
2022-09-16T20:38:53.105Z,12.77
2022-09-16T20:41:20.634Z,12.80
2022-09-16T20:43:47.845Z,12.82
2022-09-16T20:46:18.117Z,12.75
2022-09-16T20:48:45.060Z,12.75
2022-09-16T20:51:23.915Z,12.82
2022-09-16T20:54:06.306Z,12.83
2022-09-16T20:56:37.960Z,12.80
2022-09-16T20:59:07.587Z,12.76
2022-09-16T21:01:35.170Z,12.68
2022-09-16T21:04:05.093Z,12.75
2022-09-16T21:06:33.754Z,12.72
2022-09-16T21:09:02.248Z,12.71
2022-09-16T21:11:30.154Z,12.71
2022-09-16T21:14:00.174Z,12.78
2022-09-16T21:16:29.633Z,12.69
2022-09-16T21:18:57.787Z,12.67
2022-09-16T21:21:25.582Z,12.64
2022-09-16T21:23:53.237Z,12.57
2022-09-16T21:26:21.798Z,12.51
2022-09-16T21:29:02.784Z,12.54
2022-09-16T21:31:33.375Z,12.66
2022-09-16T21:34:02.974Z,12.60
2022-09-16T21:36:29.545Z,12.57
2022-09-16T21:38:56.279Z,12.61
2022-09-16T21:41:23.990Z,12.63
2022-09-16T21:43:55.455Z,12.56
2022-09-16T21:46:25.879Z,12.52
2022-09-16T21:48:55.872Z,12.48
2022-09-16T21:51:22.274Z,12.35
2022-09-16T21:53:48.655Z,12.40
2022-09-16T21:56:23.165Z,12.45
2022-09-16T21:58:52.997Z,12.32
2022-09-16T22:01:24.906Z,12.31
2022-09-16T22:03:56.934Z,12.36
2022-09-16T22:06:25.604Z,12.40
2022-09-16T22:08:53.607Z,12.44
2022-09-16T22:11:22.118Z,12.38
2022-09-16T22:13:48.828Z,12.40
2022-09-16T22:16:18.495Z,12.38
2022-09-16T22:18:44.953Z,12.27
2022-09-16T22:21:15.024Z,12.20
2022-09-16T22:23:41.651Z,12.16
2022-09-16T22:26:10.911Z,12.18
2022-09-16T22:28:37.681Z,12.15
2022-09-16T22:31:23.540Z,12.17
2022-09-16T22:33:52.005Z,12.19
2022-09-16T22:36:20.842Z,12.28
2022-09-16T22:38:51.981Z,12.34
2022-09-16T22:41:19.469Z,12.35
2022-09-16T22:43:47.773Z,12.26
2022-09-16T22:46:20.319Z,12.10
2022-09-16T22:48:47.421Z,12.10
2022-09-16T22:51:16.949Z,12.11
2022-09-16T22:53:44.329Z,12.20
2022-09-16T22:56:19.019Z,12.28
2022-09-16T22:58:46.480Z,12.27
2022-09-16T23:01:14.807Z,12.21
2022-09-16T23:03:42.394Z,12.24
2022-09-16T23:06:11.340Z,12.24
2022-09-16T23:08:41.847Z,12.10
2022-09-16T23:11:11.205Z,12.01
2022-09-16T23:13:44.469Z,12.04
2022-09-16T23:16:16.259Z,12.09
2022-09-16T23:18:44.603Z,12.05
2022-09-16T23:21:13.518Z,11.95
2022-09-16T23:23:42.990Z,11.90
2022-09-16T23:26:12.331Z,11.89
2022-09-16T23:28:38.719Z,11.94
2022-09-16T23:31:10.671Z,11.89
2022-09-16T23:33:37.444Z,11.81
2022-09-16T23:36:05.127Z,11.75
2022-09-16T23:38:31.687Z,11.74
2022-09-16T23:41:06.501Z,11.67
2022-09-16T23:43:32.913Z,11.70
2022-09-16T23:46:01.972Z,11.77
2022-09-16T23:48:29.341Z,11.78
2022-09-16T23:50:56.252Z,11.79
2022-09-16T23:53:22.855Z,11.79
2022-09-16T23:55:49.246Z,11.85
2022-09-16T23:58:16.244Z,11.89
